createdAt,value
2018-05-03T00:00:36.389Z,67.30
2018-05-03T00:03:18.447Z,67.70
2018-05-03T00:05:48.078Z,68.10
2018-05-03T00:08:17.766Z,69.00
2018-05-03T00:10:46.918Z,68.50
2018-05-03T00:13:17.363Z,69.50
2018-05-03T00:15:46.939Z,69.70
2018-05-03T00:18:16.844Z,69.50
2018-05-03T00:20:46.849Z,69.90
2018-05-03T00:23:18.522Z,70.20
2018-05-03T00:25:47.704Z,70.50
2018-05-03T00:28:29.367Z,71.00
2018-05-03T00:30:58.417Z,71.60
2018-05-03T00:33:27.272Z,72.10
2018-05-03T00:35:56.071Z,72.50
2018-05-03T00:38:25.523Z,72.90
2018-05-03T00:40:54.641Z,72.90
2018-05-03T00:43:27.275Z,73.00
2018-05-03T00:45:57.300Z,73.20
2018-05-03T00:48:31.007Z,74.30
2018-05-03T00:51:00.938Z,73.40
2018-05-03T00:53:31.325Z,73.70
2018-05-03T00:56:00.095Z,74.30
2018-05-03T00:58:42.716Z,75.40
2018-05-03T01:01:11.839Z,76.10
2018-05-03T01:03:41.705Z,77.50
2018-05-03T01:06:10.899Z,78.40
2018-05-03T01:08:39.880Z,79.40
2018-05-03T01:11:09.355Z,80.60
2018-05-03T01:18:42.283Z,85.30
2018-05-03T01:21:11.011Z,85.90
2018-05-03T01:23:45.760Z,86.30
2018-05-03T01:26:14.516Z,86.50
2018-05-03T01:28:47.319Z,86.60
2018-05-03T01:31:16.394Z,87.10
2018-05-03T01:33:50.077Z,87.50
2018-05-03T01:36:27.911Z,88.00
2018-05-03T01:38:57.019Z,88.40
2018-05-03T01:41:25.751Z,88.80
2018-05-03T01:43:55.656Z,89.10
2018-05-03T01:46:25.158Z,90.00
2018-05-03T01:48:57.846Z,89.80
2018-05-03T01:51:27.338Z,90.00
2018-05-03T01:54:01.311Z,90.40
2018-05-03T01:56:30.327Z,90.20
2018-05-03T01:59:11.979Z,90.30
2018-05-03T02:01:41.442Z,90.40
2018-05-03T02:04:10.588Z,90.40
2018-05-03T02:09:09.413Z,90.40
2018-05-03T02:11:38.158Z,90.30
2018-05-03T02:14:12.699Z,90.30
2018-05-03T02:16:41.730Z,90.30
2018-05-03T02:19:14.986Z,90.30
2018-05-03T02:21:44.139Z,90.30
2018-05-03T02:24:17.109Z,90.20
2018-05-03T02:26:46.320Z,90.20
2018-05-03T02:29:19.392Z,90.40
2018-05-03T02:31:48.902Z,90.40
2018-05-03T02:34:21.727Z,90.40
2018-05-03T02:36:50.461Z,90.50
2018-05-03T02:39:23.292Z,90.50
2018-05-03T02:41:52.277Z,90.40
2018-05-03T02:44:25.235Z,90.50
2018-05-03T02:46:54.733Z,90.80
2018-05-03T02:49:27.515Z,90.60
2018-05-03T02:51:57.388Z,90.60
2018-05-03T02:54:29.870Z,90.70
2018-05-03T02:57:07.726Z,90.70
2018-05-03T02:59:47.516Z,90.60
2018-05-03T03:02:21.835Z,90.60
2018-05-03T03:06:08.008Z,90.60
2018-05-03T03:08:55.855Z,90.80
2018-05-03T03:13:47.893Z,90.80
2018-05-03T03:18:33.863Z,90.90
2018-05-03T03:21:18.635Z,91.20
2018-05-03T03:25:00.388Z,90.80
2018-05-03T03:27:44.442Z,90.70
2018-05-03T03:30:28.682Z,90.80
2018-05-03T03:33:09.158Z,90.40
2018-05-03T03:35:49.402Z,90.20
2018-05-03T03:42:37.047Z,90.20
2018-05-03T03:45:05.891Z,90.00
2018-05-03T03:47:36.148Z,90.20
2018-05-03T03:50:05.664Z,90.10
2018-05-03T03:52:34.412Z,90.20
2018-05-03T03:55:03.446Z,90.20
2018-05-03T03:57:32.932Z,90.00
2018-05-03T04:00:04.826Z,90.10
2018-05-03T04:05:06.979Z,90.30
2018-05-03T04:07:36.507Z,89.10
2018-05-03T04:10:09.459Z,89.10
2018-05-03T04:12:38.612Z,88.10
2018-05-03T04:18:00.449Z,88.00
2018-05-03T04:20:46.769Z,88.20
2018-05-03T04:23:17.201Z,88.40
2018-05-03T04:26:00.975Z,88.80
2018-05-03T04:28:30.484Z,88.80
2018-05-03T04:31:00.673Z,89.40
2018-05-03T04:33:29.415Z,88.80
2018-05-03T04:35:58.155Z,87.80
2018-05-03T04:38:27.192Z,86.40
2018-05-03T04:40:55.934Z,85.70
2018-05-03T04:43:25.816Z,86.40
2018-05-03T04:48:26.131Z,86.20
2018-05-03T04:50:56.072Z,86.60
2018-05-03T04:53:28.489Z,86.20
2018-05-03T04:55:57.498Z,86.30
2018-05-03T04:58:31.243Z,86.50
2018-05-03T05:01:00.751Z,87.20
2018-05-03T05:03:33.027Z,85.60
2018-05-03T05:06:02.870Z,87.40
2018-05-03T05:08:35.488Z,85.80
2018-05-03T05:11:04.662Z,85.90
2018-05-03T05:13:36.879Z,84.70
2018-05-03T05:16:06.293Z,85.00
2018-05-03T05:18:40.257Z,85.20
2018-05-03T05:23:42.264Z,85.10
2018-05-03T05:26:11.767Z,85.80
2018-05-03T05:28:54.752Z,84.50
2018-05-03T05:31:23.757Z,84.70
2018-05-03T05:33:53.260Z,84.60
2018-05-03T05:36:24.900Z,84.40
2018-05-03T05:38:53.789Z,83.60
2018-05-03T05:41:22.507Z,83.30
2018-05-03T05:43:52.443Z,83.90
2018-05-03T05:46:21.956Z,82.80
2018-05-03T05:48:54.858Z,81.80
2018-05-03T05:51:23.677Z,81.10
2018-05-03T05:56:26.760Z,82.00
2018-05-03T05:59:00.709Z,79.70
2018-05-03T06:01:30.990Z,79.10
2018-05-03T06:04:02.978Z,76.30
2018-05-03T06:06:31.992Z,74.80
2018-05-03T06:09:14.103Z,73.30
2018-05-03T06:11:43.280Z,67.10
2018-05-03T06:14:12.274Z,65.80
2018-05-03T06:16:41.027Z,63.10
2018-05-03T06:19:13.328Z,61.50
2018-05-03T06:21:42.863Z,60.00
2018-05-03T06:24:13.822Z,60.10
2018-05-03T06:26:43.640Z,60.10
2018-05-03T06:35:55.994Z,56.20
2018-05-03T06:38:24.911Z,57.00
2018-05-03T06:40:54.023Z,56.40
2018-05-03T06:43:22.775Z,57.10
2018-05-03T06:45:52.003Z,57.20
2018-05-03T06:50:54.901Z,55.50
2018-05-03T06:53:26.432Z,53.10
2018-05-03T06:55:56.304Z,53.90
2018-05-03T06:58:30.132Z,52.20
2018-05-03T07:00:59.219Z,51.10
2018-05-03T07:03:31.612Z,51.50
2018-05-03T07:08:32.770Z,51.70
2018-05-03T07:11:03.012Z,50.10
2018-05-03T07:13:35.750Z,48.90
2018-05-03T07:16:06.088Z,50.10
2018-05-03T07:18:37.064Z,50.10
2018-05-03T07:21:06.375Z,48.80
2018-05-03T07:23:39.778Z,48.20
2018-05-03T07:26:10.655Z,46.90
2018-05-03T07:28:43.667Z,44.00
2018-05-03T07:31:12.537Z,43.10
2018-05-03T07:33:45.664Z,40.60
2018-05-03T07:36:14.452Z,40.50
2018-05-03T07:38:56.130Z,40.30
2018-05-03T07:41:25.278Z,41.90
2018-05-03T07:43:54.788Z,42.90
2018-05-03T07:46:23.565Z,42.00
2018-05-03T07:48:52.735Z,41.90
2018-05-03T07:51:21.463Z,41.90
2018-05-03T07:54:04.556Z,45.10
2018-05-03T07:56:33.355Z,45.70
2018-05-03T07:59:02.915Z,45.00
2018-05-03T08:01:32.320Z,42.80
2018-05-03T08:04:01.127Z,42.00
2018-05-03T08:06:29.909Z,42.30
2018-05-03T08:09:03.691Z,40.90
2018-05-03T08:11:33.551Z,39.80
2018-05-03T08:16:35.159Z,38.80
2018-05-03T08:19:09.010Z,41.30
2018-05-03T08:21:38.778Z,42.60
2018-05-03T08:24:12.534Z,43.80
2018-05-03T08:26:41.266Z,44.90
2018-05-03T08:29:14.384Z,41.80
2018-05-03T08:31:43.133Z,40.90
2018-05-03T08:34:16.318Z,41.30
2018-05-03T08:39:18.338Z,41.90
2018-05-03T08:41:47.428Z,42.50
2018-05-03T08:44:21.331Z,42.90
2018-05-03T08:46:50.833Z,43.20
2018-05-03T08:49:23.949Z,43.70
2018-05-03T08:51:53.148Z,42.30
2018-05-03T08:54:25.148Z,42.20
2018-05-03T08:56:54.688Z,42.90
2018-05-03T08:59:27.062Z,40.40
2018-05-03T09:01:56.991Z,42.10
2018-05-03T09:04:29.321Z,42.50
2018-05-03T09:06:59.455Z,42.50
2018-05-03T09:09:31.972Z,42.50
2018-05-03T09:12:01.261Z,41.40
2018-05-03T09:14:33.652Z,39.90
2018-05-03T09:17:02.532Z,40.00
2018-05-03T09:19:36.123Z,40.40
2018-05-03T09:22:09.091Z,40.60
2018-05-03T09:24:38.874Z,41.10
2018-05-03T09:27:07.639Z,40.40
2018-05-03T09:29:40.795Z,42.20
2018-05-03T09:34:42.827Z,45.20
2018-05-03T09:37:12.365Z,46.90
2018-05-03T09:39:45.515Z,48.90
2018-05-03T09:42:29.622Z,49.40
2018-05-03T09:44:58.562Z,48.60
2018-05-03T09:47:27.504Z,47.80
2018-05-03T09:49:56.401Z,46.50
2018-05-03T09:52:26.054Z,46.70
2018-05-03T09:54:56.784Z,48.70
2018-05-03T09:57:27.056Z,48.90
2018-05-03T09:59:56.275Z,50.60
2018-05-03T10:02:25.395Z,51.40
2018-05-03T10:04:58.893Z,52.60
2018-05-03T10:07:28.455Z,51.90
2018-05-03T10:10:00.439Z,49.30
2018-05-03T10:12:29.271Z,48.20
2018-05-03T10:15:02.997Z,48.50
2018-05-03T10:17:32.702Z,47.50
2018-05-03T10:20:06.091Z,47.00
2018-05-03T10:22:35.235Z,45.20
2018-05-03T10:25:16.792Z,46.20
2018-05-03T10:27:46.827Z,47.10
2018-05-03T10:30:16.469Z,48.20
2018-05-03T10:35:16.485Z,49.10
2018-05-03T10:37:46.340Z,46.80
2018-05-03T10:40:16.139Z,46.90
2018-05-03T10:42:44.919Z,45.30
2018-05-03T10:45:17.972Z,44.60
2018-05-03T10:47:46.993Z,46.00
2018-05-03T10:50:20.808Z,46.90
2018-05-03T10:52:49.546Z,45.20
2018-05-03T10:55:31.443Z,44.10
2018-05-03T10:58:01.383Z,44.30
2018-05-03T11:00:31.258Z,43.90
2018-05-03T11:03:00.273Z,44.80
2018-05-03T11:07:59.309Z,43.60
2018-05-03T11:10:29.080Z,44.40
2018-05-03T11:12:58.147Z,45.00
2018-05-03T11:15:31.249Z,44.40
2018-05-03T11:18:02.419Z,44.00
2018-05-03T11:20:50.047Z,41.60
2018-05-03T11:23:21.455Z,42.20
2018-05-03T11:25:51.384Z,42.20
2018-05-03T11:28:20.189Z,41.70
2018-05-03T11:30:49.613Z,42.60
2018-05-03T11:35:48.085Z,41.20
2018-05-03T11:38:18.300Z,43.10
2018-05-03T11:40:47.064Z,44.30
2018-05-03T11:43:16.211Z,42.80
2018-05-03T11:45:48.983Z,38.90
2018-05-03T11:50:48.008Z,40.00
2018-05-03T11:53:18.027Z,38.80
2018-05-03T11:55:49.232Z,40.30
2018-05-03T11:58:18.068Z,41.10
2018-05-03T12:03:21.419Z,40.80
2018-05-03T12:06:03.667Z,41.30
2018-05-03T12:08:33.152Z,40.10
2018-05-03T12:13:31.814Z,41.60
2018-05-03T12:16:01.977Z,40.00
2018-05-03T12:18:32.214Z,39.20
2018-05-03T12:21:02.859Z,38.40
2018-05-03T12:23:33.635Z,40.70
2018-05-03T12:26:06.017Z,41.40
2018-05-03T12:28:34.763Z,39.70
2018-05-03T12:31:16.857Z,41.10
2018-05-03T12:33:47.170Z,40.10
2018-05-03T12:36:16.596Z,41.00
2018-05-03T12:38:46.456Z,40.80
2018-05-03T12:41:15.985Z,42.10
2018-05-03T12:43:46.569Z,41.90
2018-05-03T12:46:18.683Z,41.70
2018-05-03T12:48:47.898Z,42.00
2018-05-03T12:51:17.620Z,43.30
2018-05-03T12:53:46.774Z,42.80
2018-05-03T12:56:31.032Z,42.20
2018-05-03T12:58:59.800Z,40.50
2018-05-03T13:19:47.384Z,41.90
2018-05-03T13:22:16.577Z,42.60
2018-05-03T13:24:47.756Z,41.90
2018-05-03T13:27:17.282Z,40.90
2018-05-03T13:29:46.024Z,40.90
2018-05-03T13:32:15.847Z,40.50
2018-05-03T13:34:46.274Z,40.40
2018-05-03T13:37:16.161Z,42.80
2018-05-03T13:39:46.388Z,42.90
2018-05-03T13:42:16.279Z,42.80
2018-05-03T13:44:45.067Z,41.70
2018-05-03T13:47:14.108Z,42.90
2018-05-03T13:52:13.829Z,39.80
2018-05-03T13:54:48.421Z,41.80
2018-05-03T13:57:17.172Z,42.10
2018-05-03T13:59:51.129Z,41.10
2018-05-03T14:02:23.422Z,41.40
2018-05-03T14:04:53.123Z,43.30
2018-05-03T14:07:21.949Z,40.60
2018-05-03T14:09:56.039Z,41.70
2018-05-03T14:12:25.382Z,40.30
2018-05-03T14:14:58.180Z,41.40
2018-05-03T14:20:00.272Z,40.20
2018-05-03T14:22:29.018Z,40.20
2018-05-03T14:25:03.247Z,41.20
2018-05-03T14:27:31.981Z,41.00
2018-05-03T14:30:05.426Z,42.00
2018-05-03T14:32:34.272Z,41.70
2018-05-03T14:35:16.299Z,41.70
2018-05-03T14:37:45.871Z,40.00
2018-05-03T14:40:14.817Z,40.80
2018-05-03T14:42:43.552Z,41.90
2018-05-03T14:45:14.877Z,40.50
2018-05-03T14:47:44.571Z,40.00
2018-05-03T14:50:26.655Z,38.60
2018-05-03T14:52:57.112Z,40.00
2018-05-03T14:55:26.744Z,40.00
2018-05-03T14:57:56.375Z,38.80
2018-05-03T15:00:26.744Z,39.20
2018-05-03T15:05:26.578Z,39.60
2018-05-03T15:10:26.901Z,38.50
2018-05-03T15:12:56.812Z,36.80
2018-05-03T15:15:26.439Z,38.40
2018-05-03T15:17:56.607Z,38.30
2018-05-03T15:20:30.795Z,37.10
2018-05-03T15:27:59.628Z,39.30
2018-05-03T15:30:32.634Z,38.60
2018-05-03T15:33:01.395Z,39.90
2018-05-03T15:38:03.586Z,41.10
2018-05-03T15:40:36.788Z,40.60
2018-05-03T15:45:39.340Z,39.10
2018-05-03T15:48:09.564Z,38.40
2018-05-03T15:50:42.040Z,37.80
2018-05-03T15:58:14.432Z,41.10
2018-05-03T16:00:56.219Z,40.60
2018-05-03T16:03:25.104Z,39.40
2018-05-03T16:05:54.319Z,39.60
2018-05-03T16:08:24.093Z,40.00
2018-05-03T16:10:53.140Z,40.80
2018-05-03T16:15:55.270Z,42.00
2018-05-03T16:18:24.036Z,40.30
2018-05-03T16:20:57.991Z,41.50
2018-05-03T16:23:27.246Z,41.00
2018-05-03T16:26:00.532Z,40.50
2018-05-03T16:28:29.555Z,40.30
2018-05-03T16:31:11.348Z,41.00
2018-05-03T16:33:41.604Z,39.30
2018-05-03T16:36:12.324Z,39.20
2018-05-03T16:38:41.621Z,39.10
2018-05-03T16:41:11.522Z,39.50
2018-05-03T16:46:12.092Z,40.00
2018-05-03T16:48:43.039Z,39.60
2018-05-03T16:51:13.753Z,40.00
2018-05-03T16:53:43.310Z,39.40
2018-05-03T16:58:43.621Z,40.70
2018-05-03T17:01:17.822Z,41.10
2018-05-03T17:03:47.926Z,42.10
2018-05-03T17:08:48.810Z,42.10
2018-05-03T17:11:21.394Z,42.50
2018-05-03T17:13:50.877Z,42.80
2018-05-03T17:16:32.563Z,43.70
2018-05-03T17:19:01.718Z,43.30
2018-05-03T17:21:30.747Z,43.50
2018-05-03T17:23:59.487Z,43.30
2018-05-03T17:26:28.232Z,43.30
2018-05-03T17:29:01.091Z,42.80
2018-05-03T17:31:31.263Z,42.00
2018-05-03T17:36:42.691Z,43.80
2018-05-03T17:39:12.067Z,44.20
2018-05-03T17:41:41.952Z,44.70
2018-05-03T17:44:11.853Z,43.80
2018-05-03T17:49:11.852Z,43.80
2018-05-03T17:51:40.896Z,44.70
2018-05-03T17:56:43.301Z,45.00
2018-05-03T17:59:12.512Z,45.60
2018-05-03T18:01:45.898Z,45.70
2018-05-03T18:04:15.047Z,46.60
2018-05-03T18:06:56.574Z,47.20
2018-05-03T18:09:27.075Z,47.40
2018-05-03T18:11:56.958Z,48.00
2018-05-03T18:16:56.895Z,48.40
2018-05-03T18:19:26.819Z,48.60
2018-05-03T18:21:56.707Z,49.00
2018-05-03T18:24:25.760Z,49.30
2018-05-03T18:26:57.835Z,49.00
2018-05-03T18:29:27.624Z,48.70
2018-05-03T18:32:00.208Z,49.30
2018-05-03T18:37:02.755Z,49.70
2018-05-03T18:39:32.595Z,50.10
2018-05-03T18:42:05.652Z,50.50
2018-05-03T18:44:34.703Z,51.00
2018-05-03T18:47:08.748Z,51.20
2018-05-03T18:49:37.959Z,51.40
2018-05-03T18:52:12.238Z,51.80
2018-05-03T18:54:41.837Z,51.90
2018-05-03T18:57:14.331Z,52.30
2018-05-03T18:59:43.848Z,53.00
2018-05-03T19:02:16.428Z,52.90
2018-05-03T19:04:45.177Z,52.80
2018-05-03T19:07:18.061Z,53.20
2018-05-03T19:09:47.252Z,53.10
2018-05-03T19:12:21.255Z,53.40
2018-05-03T19:14:50.600Z,53.60
2018-05-03T19:17:21.660Z,54.40
2018-05-03T19:19:50.400Z,54.20
2018-05-03T19:22:24.564Z,54.30
2018-05-03T19:24:54.771Z,54.00
2018-05-03T19:27:27.728Z,54.10
2018-05-03T19:29:58.062Z,53.80
2018-05-03T19:32:28.052Z,53.90
2018-05-03T19:34:56.804Z,53.70
2018-05-03T19:37:29.791Z,54.10
2018-05-03T19:42:31.981Z,54.10
2018-05-03T19:45:02.494Z,54.40
2018-05-03T19:47:34.366Z,55.00
2018-05-03T19:50:04.003Z,55.70
2018-05-03T19:52:36.388Z,56.10
2018-05-03T19:55:07.154Z,56.60
2018-05-03T19:57:39.032Z,56.90
2018-05-03T20:00:07.770Z,56.90
2018-05-03T20:02:41.055Z,56.70
2018-05-03T20:05:10.588Z,57.20
2018-05-03T20:07:43.479Z,57.40
2018-05-03T20:10:12.501Z,56.70
2018-05-03T20:12:45.226Z,56.10
2018-05-03T20:15:14.008Z,56.70
2018-05-03T20:17:48.102Z,56.90
2018-05-03T20:20:16.811Z,57.10
2018-05-03T20:22:49.779Z,57.50
2018-05-03T20:25:18.768Z,57.90
2018-05-03T20:27:51.898Z,58.10
2018-05-03T20:30:22.101Z,58.50
2018-05-03T20:32:55.773Z,58.60
2018-05-03T20:35:25.581Z,58.10
2018-05-03T20:37:57.482Z,58.30
2018-05-03T20:40:27.308Z,58.70
2018-05-03T20:45:29.307Z,58.70
2018-05-03T20:48:02.486Z,58.50
2018-05-03T20:50:32.487Z,58.10
2018-05-03T20:53:05.342Z,58.30
2018-05-03T20:55:34.050Z,58.30
2018-05-03T20:58:16.214Z,58.20
2018-05-03T21:00:44.923Z,58.20
2018-05-03T21:03:17.442Z,58.60
2018-05-03T21:05:47.529Z,59.00
2018-05-03T21:08:17.350Z,59.00
2018-05-03T21:10:48.192Z,59.20
2018-05-03T21:13:16.924Z,59.70
2018-05-03T21:15:45.848Z,60.10
2018-05-03T21:18:19.553Z,60.40
2018-05-03T21:20:49.052Z,61.20
2018-05-03T21:23:20.146Z,61.00
2018-05-03T21:28:24.676Z,60.70
2018-05-03T21:30:53.502Z,60.90
2018-05-03T21:33:24.709Z,61.20
2018-05-03T21:35:53.631Z,61.20
2018-05-03T21:38:27.055Z,61.30
2018-05-03T21:40:57.006Z,61.80
2018-05-03T21:43:29.194Z,62.70
2018-05-03T21:45:58.923Z,62.40
2018-05-03T21:48:31.486Z,62.90
2018-05-03T21:51:00.269Z,63.20
2018-05-03T21:53:33.219Z,63.30
2018-05-03T21:58:37.041Z,64.10
2018-05-03T22:03:38.005Z,64.30
2018-05-03T22:06:07.122Z,65.50
2018-05-03T22:08:40.432Z,65.40
2018-05-03T22:11:09.131Z,65.40
2018-05-03T22:13:42.163Z,65.90
2018-05-03T22:16:13.675Z,66.20
2018-05-03T22:18:44.568Z,66.20
2018-05-03T22:21:16.502Z,66.40
2018-05-03T22:23:47.468Z,67.30
2018-05-03T22:26:16.991Z,66.60
2018-05-03T22:28:49.586Z,67.20
2018-05-03T22:31:18.792Z,67.00
2018-05-03T22:33:51.799Z,67.10
2018-05-03T22:36:23.288Z,67.30
2018-05-03T22:38:55.069Z,67.40
2018-05-03T22:41:24.524Z,67.40
2018-05-03T22:43:56.754Z,68.70
2018-05-03T22:46:25.785Z,68.20
2018-05-03T22:49:07.514Z,68.80
2018-05-03T22:51:38.932Z,69.00
2018-05-03T22:54:08.817Z,68.90
2018-05-03T22:59:07.871Z,69.30
2018-05-03T23:01:36.966Z,70.00
2018-05-03T23:04:06.761Z,69.80
2018-05-03T23:06:37.146Z,69.40
2018-05-03T23:09:11.872Z,69.50
2018-05-03T23:11:40.893Z,69.90
2018-05-03T23:14:13.977Z,71.00
2018-05-03T23:16:42.656Z,70.70
2018-05-03T23:19:14.622Z,70.30
2018-05-03T23:21:43.396Z,70.20
2018-05-03T23:24:16.795Z,70.40
2018-05-03T23:26:45.747Z,71.60
2018-05-03T23:29:19.057Z,72.90
2018-05-03T23:31:47.744Z,73.10
2018-05-03T23:34:21.518Z,73.40
2018-05-03T23:39:23.655Z,73.80
2018-05-03T23:41:52.678Z,74.10
2018-05-03T23:44:26.143Z,74.00
2018-05-03T23:46:55.676Z,73.90
2018-05-03T23:51:55.652Z,75.30
2018-05-03T23:54:36.693Z,76.00
2018-05-03T23:57:06.037Z,76.40
2018-05-03T23:59:35.917Z,77.00
